sensor_id;sensor_type;location;lat;lon;timestamp;temperature;humidity
9103;DHT22;4587;51.434;6.788;2023-12-04T00:00:01;1.90;99.90
9103;DHT22;4587;51.434;6.788;2023-12-04T00:02:26;1.90;99.90
9103;DHT22;4587;51.434;6.788;2023-12-04T00:04:52;1.90;99.90
9103;DHT22;4587;51.434;6.788;2023-12-04T00:07:17;1.90;99.90
9103;DHT22;4587;51.434;6.788;2023-12-04T00:09:43;1.90;99.90
9103;DHT22;4587;51.434;6.788;2023-12-04T00:12:08;1.90;99.90
9103;DHT22;4587;51.434;6.788;2023-12-04T00:14:34;1.90;99.90
9103;DHT22;4587;51.434;6.788;2023-12-04T00:16:59;1.90;99.90
9103;DHT22;4587;51.434;6.788;2023-12-04T00:19:25;1.90;99.90
9103;DHT22;4587;51.434;6.788;2023-12-04T00:21:51;1.90;99.90
9103;DHT22;4587;51.434;6.788;2023-12-04T00:24:16;1.90;99.90
9103;DHT22;4587;51.434;6.788;2023-12-04T00:26:42;1.90;99.90
9103;DHT22;4587;51.434;6.788;2023-12-04T00:29:07;1.90;99.90
9103;DHT22;4587;51.434;6.788;2023-12-04T00:31:33;1.90;99.90
9103;DHT22;4587;51.434;6.788;2023-12-04T00:33:58;2.00;99.90
9103;DHT22;4587;51.434;6.788;2023-12-04T00:36:24;1.90;99.90
9103;DHT22;4587;51.434;6.788;2023-12-04T00:38:49;2.00;99.90
9103;DHT22;4587;51.434;6.788;2023-12-04T00:41:15;2.10;99.90
9103;DHT22;4587;51.434;6.788;2023-12-04T00:43:40;2.10;99.90
9103;DHT22;4587;51.434;6.788;2023-12-04T00:46:06;2.10;99.90
9103;DHT22;4587;51.434;6.788;2023-12-04T00:48:32;2.10;99.90
9103;DHT22;4587;51.434;6.788;2023-12-04T00:50:57;2.20;99.90
9103;DHT22;4587;51.434;6.788;2023-12-04T00:53:23;2.20;99.90
9103;DHT22;4587;51.434;6.788;2023-12-04T00:55:49;2.20;99.90
9103;DHT22;4587;51.434;6.788;2023-12-04T00:58:14;2.20;99.90
9103;DHT22;4587;51.434;6.788;2023-12-04T01:00:40;2.20;99.90
9103;DHT22;4587;51.434;6.788;2023-12-04T01:03:06;2.10;99.90
9103;DHT22;4587;51.434;6.788;2023-12-04T01:05:31;2.10;99.90
9103;DHT22;4587;51.434;6.788;2023-12-04T01:07:57;2.10;99.90
9103;DHT22;4587;51.434;6.788;2023-12-04T01:10:22;2.20;99.90
9103;DHT22;4587;51.434;6.788;2023-12-04T01:12:48;2.20;99.90
9103;DHT22;4587;51.434;6.788;2023-12-04T01:15:14;2.20;99.90
9103;DHT22;4587;51.434;6.788;2023-12-04T01:17:39;2.20;99.90
9103;DHT22;4587;51.434;6.788;2023-12-04T01:20:05;2.10;99.90
9103;DHT22;4587;51.434;6.788;2023-12-04T01:22:31;2.10;99.90
9103;DHT22;4587;51.434;6.788;2023-12-04T01:24:57;2.10;99.90
9103;DHT22;4587;51.434;6.788;2023-12-04T01:27:22;2.10;99.90
9103;DHT22;4587;51.434;6.788;2023-12-04T01:29:48;2.10;99.90
9103;DHT22;4587;51.434;6.788;2023-12-04T01:32:13;2.10;99.90
9103;DHT22;4587;51.434;6.788;2023-12-04T01:34:39;2.10;99.90
9103;DHT22;4587;51.434;6.788;2023-12-04T01:37:05;2.30;99.90
9103;DHT22;4587;51.434;6.788;2023-12-04T01:39:30;2.20;99.90
9103;DHT22;4587;51.434;6.788;2023-12-04T01:41:56;2.20;99.90
9103;DHT22;4587;51.434;6.788;2023-12-04T01:44:21;2.20;99.90
9103;DHT22;4587;51.434;6.788;2023-12-04T01:46:48;2.10;99.90
9103;DHT22;4587;51.434;6.788;2023-12-04T01:49:14;2.00;99.90
9103;DHT22;4587;51.434;6.788;2023-12-04T01:51:39;2.00;99.90
9103;DHT22;4587;51.434;6.788;2023-12-04T01:54:06;2.10;99.90
9103;DHT22;4587;51.434;6.788;2023-12-04T01:56:34;2.10;99.90
9103;DHT22;4587;51.434;6.788;2023-12-04T01:59:00;2.00;99.90
9103;DHT22;4587;51.434;6.788;2023-12-04T02:01:26;2.00;99.90
9103;DHT22;4587;51.434;6.788;2023-12-04T02:03:53;2.00;99.90
9103;DHT22;4587;51.434;6.788;2023-12-04T02:06:19;2.10;99.90
9103;DHT22;4587;51.434;6.788;2023-12-04T02:08:48;2.20;99.90
9103;DHT22;4587;51.434;6.788;2023-12-04T02:11:14;2.30;99.90
9103;DHT22;4587;51.434;6.788;2023-12-04T02:13:40;2.20;99.90
9103;DHT22;4587;51.434;6.788;2023-12-04T02:16:09;2.30;99.90
9103;DHT22;4587;51.434;6.788;2023-12-04T02:18:35;2.30;99.90
9103;DHT22;4587;51.434;6.788;2023-12-04T02:21:01;2.20;99.90
9103;DHT22;4587;51.434;6.788;2023-12-04T02:23:27;2.20;99.90
9103;DHT22;4587;51.434;6.788;2023-12-04T02:26:01;2.30;99.90
9103;DHT22;4587;51.434;6.788;2023-12-04T02:28:33;2.20;99.90
9103;DHT22;4587;51.434;6.788;2023-12-04T02:31:01;2.20;99.90
9103;DHT22;4587;51.434;6.788;2023-12-04T02:33:29;2.20;99.90
9103;DHT22;4587;51.434;6.788;2023-12-04T02:35:55;2.20;99.90
9103;DHT22;4587;51.434;6.788;2023-12-04T02:38:23;2.30;99.90
9103;DHT22;4587;51.434;6.788;2023-12-04T02:40:48;2.30;99.90
9103;DHT22;4587;51.434;6.788;2023-12-04T02:43:14;2.30;99.90
9103;DHT22;4587;51.434;6.788;2023-12-04T02:45:39;2.30;99.90
9103;DHT22;4587;51.434;6.788;2023-12-04T02:48:05;2.30;99.90
9103;DHT22;4587;51.434;6.788;2023-12-04T02:50:31;2.30;99.90
9103;DHT22;4587;51.434;6.788;2023-12-04T02:52:56;2.30;99.90
9103;DHT22;4587;51.434;6.788;2023-12-04T02:55:22;2.20;99.90
9103;DHT22;4587;51.434;6.788;2023-12-04T02:57:47;2.30;99.90
9103;DHT22;4587;51.434;6.788;2023-12-04T03:00:13;2.30;99.90
9103;DHT22;4587;51.434;6.788;2023-12-04T03:02:39;2.20;99.90
9103;DHT22;4587;51.434;6.788;2023-12-04T03:05:04;2.30;99.90
9103;DHT22;4587;51.434;6.788;2023-12-04T03:07:30;2.30;99.90
9103;DHT22;4587;51.434;6.788;2023-12-04T03:09:55;2.30;99.90
9103;DHT22;4587;51.434;6.788;2023-12-04T03:12:21;2.30;99.90
9103;DHT22;4587;51.434;6.788;2023-12-04T03:14:46;2.30;99.90
9103;DHT22;4587;51.434;6.788;2023-12-04T03:17:12;2.30;99.90
9103;DHT22;4587;51.434;6.788;2023-12-04T03:19:37;2.30;99.90
9103;DHT22;4587;51.434;6.788;2023-12-04T03:22:03;2.40;99.90
9103;DHT22;4587;51.434;6.788;2023-12-04T03:24:29;2.30;99.90
9103;DHT22;4587;51.434;6.788;2023-12-04T03:26:54;2.40;99.90
9103;DHT22;4587;51.434;6.788;2023-12-04T03:29:20;2.30;99.90
9103;DHT22;4587;51.434;6.788;2023-12-04T03:31:45;2.40;99.90
9103;DHT22;4587;51.434;6.788;2023-12-04T03:34:11;2.40;99.90
9103;DHT22;4587;51.434;6.788;2023-12-04T03:36:36;2.40;99.90
9103;DHT22;4587;51.434;6.788;2023-12-04T03:39:02;2.40;99.90
9103;DHT22;4587;51.434;6.788;2023-12-04T03:41:28;2.40;99.90
9103;DHT22;4587;51.434;6.788;2023-12-04T03:43:53;2.40;99.90
9103;DHT22;4587;51.434;6.788;2023-12-04T03:46:19;2.40;99.90
9103;DHT22;4587;51.434;6.788;2023-12-04T03:48:45;2.40;99.90
9103;DHT22;4587;51.434;6.788;2023-12-04T03:51:11;2.40;99.90
9103;DHT22;4587;51.434;6.788;2023-12-04T03:53:36;2.40;99.90
9103;DHT22;4587;51.434;6.788;2023-12-04T03:56:02;2.50;99.90
9103;DHT22;4587;51.434;6.788;2023-12-04T03:58:28;2.50;99.90
9103;DHT22;4587;51.434;6.788;2023-12-04T04:00:53;2.60;99.90
9103;DHT22;4587;51.434;6.788;2023-12-04T04:03:19;2.50;99.90
9103;DHT22;4587;51.434;6.788;2023-12-04T04:05:44;2.50;99.90
9103;DHT22;4587;51.434;6.788;2023-12-04T04:08:10;2.50;99.90
9103;DHT22;4587;51.434;6.788;2023-12-04T04:10:36;2.60;99.90
9103;DHT22;4587;51.434;6.788;2023-12-04T04:13:02;2.50;99.90
9103;DHT22;4587;51.434;6.788;2023-12-04T04:15:27;2.50;99.90
9103;DHT22;4587;51.434;6.788;2023-12-04T04:17:53;2.60;99.90
9103;DHT22;4587;51.434;6.788;2023-12-04T04:20:19;2.50;99.90
9103;DHT22;4587;51.434;6.788;2023-12-04T04:22:45;2.60;99.90
9103;DHT22;4587;51.434;6.788;2023-12-04T04:25:12;2.60;99.90
9103;DHT22;4587;51.434;6.788;2023-12-04T04:27:38;2.60;99.90
9103;DHT22;4587;51.434;6.788;2023-12-04T04:30:04;2.60;99.90
9103;DHT22;4587;51.434;6.788;2023-12-04T04:32:30;2.60;99.90
9103;DHT22;4587;51.434;6.788;2023-12-04T04:34:55;2.60;99.90
9103;DHT22;4587;51.434;6.788;2023-12-04T04:37:21;2.60;99.90
9103;DHT22;4587;51.434;6.788;2023-12-04T04:39:46;2.60;99.90
9103;DHT22;4587;51.434;6.788;2023-12-04T04:42:12;2.60;99.90
9103;DHT22;4587;51.434;6.788;2023-12-04T04:44:37;2.60;99.90
9103;DHT22;4587;51.434;6.788;2023-12-04T04:47:03;2.60;99.90
9103;DHT22;4587;51.434;6.788;2023-12-04T04:49:28;2.60;99.90
9103;DHT22;4587;51.434;6.788;2023-12-04T04:51:54;2.60;99.90
9103;DHT22;4587;51.434;6.788;2023-12-04T04:54:19;2.70;99.90
9103;DHT22;4587;51.434;6.788;2023-12-04T04:56:45;2.70;99.90
9103;DHT22;4587;51.434;6.788;2023-12-04T04:59:11;2.70;99.90
9103;DHT22;4587;51.434;6.788;2023-12-04T05:01:36;2.60;99.90
9103;DHT22;4587;51.434;6.788;2023-12-04T05:04:02;2.60;99.90
9103;DHT22;4587;51.434;6.788;2023-12-04T05:06:28;2.60;99.90
9103;DHT22;4587;51.434;6.788;2023-12-04T05:08:54;2.60;99.90
9103;DHT22;4587;51.434;6.788;2023-12-04T05:11:19;2.60;99.90
9103;DHT22;4587;51.434;6.788;2023-12-04T05:13:45;2.60;99.90
9103;DHT22;4587;51.434;6.788;2023-12-04T05:16:10;2.60;99.90
9103;DHT22;4587;51.434;6.788;2023-12-04T05:18:37;2.60;99.90
9103;DHT22;4587;51.434;6.788;2023-12-04T05:21:03;2.60;99.90
9103;DHT22;4587;51.434;6.788;2023-12-04T05:23:33;2.60;99.90
9103;DHT22;4587;51.434;6.788;2023-12-04T05:25:58;2.50;99.90
9103;DHT22;4587;51.434;6.788;2023-12-04T05:28:24;2.50;99.90
9103;DHT22;4587;51.434;6.788;2023-12-04T05:30:49;2.60;99.90
9103;DHT22;4587;51.434;6.788;2023-12-04T05:33:15;2.50;99.90
9103;DHT22;4587;51.434;6.788;2023-12-04T05:35:41;2.50;99.90
9103;DHT22;4587;51.434;6.788;2023-12-04T05:38:06;2.60;99.90
9103;DHT22;4587;51.434;6.788;2023-12-04T05:40:34;2.50;99.90
9103;DHT22;4587;51.434;6.788;2023-12-04T05:42:59;2.50;99.90
9103;DHT22;4587;51.434;6.788;2023-12-04T05:45:25;2.50;99.90
9103;DHT22;4587;51.434;6.788;2023-12-04T05:47:50;2.50;99.90
9103;DHT22;4587;51.434;6.788;2023-12-04T05:50:16;2.50;99.90
9103;DHT22;4587;51.434;6.788;2023-12-04T05:52:41;2.50;99.90
9103;DHT22;4587;51.434;6.788;2023-12-04T05:55:07;2.40;99.90
9103;DHT22;4587;51.434;6.788;2023-12-04T05:57:33;2.40;99.90
9103;DHT22;4587;51.434;6.788;2023-12-04T05:59:58;2.50;99.90
9103;DHT22;4587;51.434;6.788;2023-12-04T06:02:24;2.40;99.90
9103;DHT22;4587;51.434;6.788;2023-12-04T06:04:50;2.50;99.90
9103;DHT22;4587;51.434;6.788;2023-12-04T06:07:16;2.50;99.90
9103;DHT22;4587;51.434;6.788;2023-12-04T06:09:42;2.40;99.90
9103;DHT22;4587;51.434;6.788;2023-12-04T06:12:07;2.50;99.90
9103;DHT22;4587;51.434;6.788;2023-12-04T06:14:34;2.50;99.90
9103;DHT22;4587;51.434;6.788;2023-12-04T06:17:00;2.40;99.90
9103;DHT22;4587;51.434;6.788;2023-12-04T06:19:27;2.40;99.90
9103;DHT22;4587;51.434;6.788;2023-12-04T06:21:54;2.40;99.90
9103;DHT22;4587;51.434;6.788;2023-12-04T06:24:20;2.40;99.90
9103;DHT22;4587;51.434;6.788;2023-12-04T06:26:50;2.50;99.90
9103;DHT22;4587;51.434;6.788;2023-12-04T06:29:15;2.50;99.90
9103;DHT22;4587;51.434;6.788;2023-12-04T06:31:41;2.50;99.90
9103;DHT22;4587;51.434;6.788;2023-12-04T06:34:07;2.40;99.90
9103;DHT22;4587;51.434;6.788;2023-12-04T06:36:37;2.50;99.90
9103;DHT22;4587;51.434;6.788;2023-12-04T06:39:06;2.50;99.90
9103;DHT22;4587;51.434;6.788;2023-12-04T06:41:34;2.50;99.90
9103;DHT22;4587;51.434;6.788;2023-12-04T06:44:00;2.50;99.90
9103;DHT22;4587;51.434;6.788;2023-12-04T06:46:27;2.60;99.90
9103;DHT22;4587;51.434;6.788;2023-12-04T06:48:54;2.50;99.90
9103;DHT22;4587;51.434;6.788;2023-12-04T06:51:22;2.50;99.90
9103;DHT22;4587;51.434;6.788;2023-12-04T06:53:47;2.50;99.90
9103;DHT22;4587;51.434;6.788;2023-12-04T06:56:13;2.50;99.90
9103;DHT22;4587;51.434;6.788;2023-12-04T06:58:38;2.50;99.90
9103;DHT22;4587;51.434;6.788;2023-12-04T07:01:04;2.50;99.90
9103;DHT22;4587;51.434;6.788;2023-12-04T07:03:29;2.50;99.90
9103;DHT22;4587;51.434;6.788;2023-12-04T07:05:55;2.50;99.90
9103;DHT22;4587;51.434;6.788;2023-12-04T07:08:21;2.50;99.90
9103;DHT22;4587;51.434;6.788;2023-12-04T07:10:46;2.40;99.90
9103;DHT22;4587;51.434;6.788;2023-12-04T07:13:12;2.50;99.90
9103;DHT22;4587;51.434;6.788;2023-12-04T07:15:38;2.50;99.90
9103;DHT22;4587;51.434;6.788;2023-12-04T07:18:04;2.50;99.90
9103;DHT22;4587;51.434;6.788;2023-12-04T07:20:29;2.60;99.90
9103;DHT22;4587;51.434;6.788;2023-12-04T07:22:55;2.50;99.90
9103;DHT22;4587;51.434;6.788;2023-12-04T07:25:23;2.50;99.90
9103;DHT22;4587;51.434;6.788;2023-12-04T07:27:49;2.50;99.90
9103;DHT22;4587;51.434;6.788;2023-12-04T07:30:14;2.60;99.90
9103;DHT22;4587;51.434;6.788;2023-12-04T07:32:40;2.60;99.90
9103;DHT22;4587;51.434;6.788;2023-12-04T07:35:06;2.60;99.90
9103;DHT22;4587;51.434;6.788;2023-12-04T07:37:32;2.50;99.90
9103;DHT22;4587;51.434;6.788;2023-12-04T07:39:57;2.60;99.90
9103;DHT22;4587;51.434;6.788;2023-12-04T07:42:23;2.60;99.90
9103;DHT22;4587;51.434;6.788;2023-12-04T07:44:49;2.60;99.90
9103;DHT22;4587;51.434;6.788;2023-12-04T07:47:14;2.60;99.90
9103;DHT22;4587;51.434;6.788;2023-12-04T07:49:41;2.70;99.90
9103;DHT22;4587;51.434;6.788;2023-12-04T07:52:07;2.60;99.90
9103;DHT22;4587;51.434;6.788;2023-12-04T07:54:33;2.70;99.90
9103;DHT22;4587;51.434;6.788;2023-12-04T07:56:59;2.70;99.90
9103;DHT22;4587;51.434;6.788;2023-12-04T07:59:24;2.70;99.90
9103;DHT22;4587;51.434;6.788;2023-12-04T08:01:50;2.70;99.90
9103;DHT22;4587;51.434;6.788;2023-12-04T08:04:15;2.70;99.90
9103;DHT22;4587;51.434;6.788;2023-12-04T08:06:41;2.70;99.90
9103;DHT22;4587;51.434;6.788;2023-12-04T08:09:06;2.70;99.90
9103;DHT22;4587;51.434;6.788;2023-12-04T08:11:35;2.80;99.90
9103;DHT22;4587;51.434;6.788;2023-12-04T08:14:01;2.80;99.90
9103;DHT22;4587;51.434;6.788;2023-12-04T08:16:26;2.70;99.90
9103;DHT22;4587;51.434;6.788;2023-12-04T08:18:54;2.80;99.90
9103;DHT22;4587;51.434;6.788;2023-12-04T08:21:20;2.90;99.90
9103;DHT22;4587;51.434;6.788;2023-12-04T08:23:45;2.90;99.90
9103;DHT22;4587;51.434;6.788;2023-12-04T08:26:11;2.90;99.90
9103;DHT22;4587;51.434;6.788;2023-12-04T08:28:36;3.00;99.90
9103;DHT22;4587;51.434;6.788;2023-12-04T08:31:09;3.00;99.90
9103;DHT22;4587;51.434;6.788;2023-12-04T08:33:36;3.10;99.90
9103;DHT22;4587;51.434;6.788;2023-12-04T08:36:01;3.10;99.90
9103;DHT22;4587;51.434;6.788;2023-12-04T08:38:27;3.10;99.90
9103;DHT22;4587;51.434;6.788;2023-12-04T08:40:53;3.10;99.90
9103;DHT22;4587;51.434;6.788;2023-12-04T08:43:19;3.10;99.90
9103;DHT22;4587;51.434;6.788;2023-12-04T08:45:47;3.20;99.90
9103;DHT22;4587;51.434;6.788;2023-12-04T08:48:13;3.20;99.90
9103;DHT22;4587;51.434;6.788;2023-12-04T08:50:38;3.20;99.90
9103;DHT22;4587;51.434;6.788;2023-12-04T08:53:04;3.20;99.90
9103;DHT22;4587;51.434;6.788;2023-12-04T08:55:30;3.20;99.90
9103;DHT22;4587;51.434;6.788;2023-12-04T08:57:55;3.30;99.90
9103;DHT22;4587;51.434;6.788;2023-12-04T09:00:21;3.30;99.90
9103;DHT22;4587;51.434;6.788;2023-12-04T09:02:48;3.40;99.90
9103;DHT22;4587;51.434;6.788;2023-12-04T09:05:14;3.40;99.90
9103;DHT22;4587;51.434;6.788;2023-12-04T09:07:39;3.40;99.90
9103;DHT22;4587;51.434;6.788;2023-12-04T09:10:05;3.50;99.90
9103;DHT22;4587;51.434;6.788;2023-12-04T09:12:31;3.50;99.90
9103;DHT22;4587;51.434;6.788;2023-12-04T09:14:57;3.50;99.90
9103;DHT22;4587;51.434;6.788;2023-12-04T09:17:22;3.50;99.90
9103;DHT22;4587;51.434;6.788;2023-12-04T09:19:48;3.60;99.90
9103;DHT22;4587;51.434;6.788;2023-12-04T09:22:14;3.60;99.90
9103;DHT22;4587;51.434;6.788;2023-12-04T09:24:39;3.60;99.90
9103;DHT22;4587;51.434;6.788;2023-12-04T09:27:05;3.60;99.90
9103;DHT22;4587;51.434;6.788;2023-12-04T09:29:33;3.60;99.90
9103;DHT22;4587;51.434;6.788;2023-12-04T09:31:59;3.70;99.90
9103;DHT22;4587;51.434;6.788;2023-12-04T09:34:24;3.70;99.90
9103;DHT22;4587;51.434;6.788;2023-12-04T09:36:50;3.70;99.90
9103;DHT22;4587;51.434;6.788;2023-12-04T09:39:16;3.70;99.90
9103;DHT22;4587;51.434;6.788;2023-12-04T09:41:43;3.70;99.90
9103;DHT22;4587;51.434;6.788;2023-12-04T09:44:09;3.70;99.90
9103;DHT22;4587;51.434;6.788;2023-12-04T09:46:35;3.70;99.90
9103;DHT22;4587;51.434;6.788;2023-12-04T09:49:00;3.70;99.90
9103;DHT22;4587;51.434;6.788;2023-12-04T09:51:30;3.80;99.90
9103;DHT22;4587;51.434;6.788;2023-12-04T09:53:57;3.80;99.90
9103;DHT22;4587;51.434;6.788;2023-12-04T09:56:25;3.80;99.90
9103;DHT22;4587;51.434;6.788;2023-12-04T09:58:56;3.90;99.90
9103;DHT22;4587;51.434;6.788;2023-12-04T10:01:23;3.90;99.90
9103;DHT22;4587;51.434;6.788;2023-12-04T10:03:50;3.80;99.90
9103;DHT22;4587;51.434;6.788;2023-12-04T10:06:16;4.00;99.90
9103;DHT22;4587;51.434;6.788;2023-12-04T10:08:45;4.00;99.90
9103;DHT22;4587;51.434;6.788;2023-12-04T10:11:12;4.00;99.90
9103;DHT22;4587;51.434;6.788;2023-12-04T10:13:40;4.00;99.90
9103;DHT22;4587;51.434;6.788;2023-12-04T10:16:06;4.10;99.90
9103;DHT22;4587;51.434;6.788;2023-12-04T10:18:32;4.10;99.90
9103;DHT22;4587;51.434;6.788;2023-12-04T10:20:58;4.10;99.90
9103;DHT22;4587;51.434;6.788;2023-12-04T10:26:02;4.10;99.90
9103;DHT22;4587;51.434;6.788;2023-12-04T10:28:28;4.00;99.90
9103;DHT22;4587;51.434;6.788;2023-12-04T10:30:55;4.10;99.90
9103;DHT22;4587;51.434;6.788;2023-12-04T10:33:20;4.10;99.90
9103;DHT22;4587;51.434;6.788;2023-12-04T10:35:47;4.10;99.90
9103;DHT22;4587;51.434;6.788;2023-12-04T10:38:12;4.10;99.90
9103;DHT22;4587;51.434;6.788;2023-12-04T10:40:39;4.10;99.90
9103;DHT22;4587;51.434;6.788;2023-12-04T10:45:37;4.10;99.90
9103;DHT22;4587;51.434;6.788;2023-12-04T10:48:04;4.10;99.90
9103;DHT22;4587;51.434;6.788;2023-12-04T10:50:51;4.10;99.90
9103;DHT22;4587;51.434;6.788;2023-12-04T10:53:18;4.10;99.90
9103;DHT22;4587;51.434;6.788;2023-12-04T10:55:44;4.10;99.90
9103;DHT22;4587;51.434;6.788;2023-12-04T10:58:12;4.10;99.90
9103;DHT22;4587;51.434;6.788;2023-12-04T11:00:48;4.10;99.90
9103;DHT22;4587;51.434;6.788;2023-12-04T11:03:21;4.10;99.90
9103;DHT22;4587;51.434;6.788;2023-12-04T11:05:59;4.20;99.90
9103;DHT22;4587;51.434;6.788;2023-12-04T11:08:32;4.20;99.90
9103;DHT22;4587;51.434;6.788;2023-12-04T11:11:14;4.20;99.90
9103;DHT22;4587;51.434;6.788;2023-12-04T11:13:48;4.20;99.90
9103;DHT22;4587;51.434;6.788;2023-12-04T11:16:28;4.20;99.90
9103;DHT22;4587;51.434;6.788;2023-12-04T11:19:03;4.20;99.90
9103;DHT22;4587;51.434;6.788;2023-12-04T11:21:32;4.20;99.90
9103;DHT22;4587;51.434;6.788;2023-12-04T11:23:59;4.10;99.90
9103;DHT22;4587;51.434;6.788;2023-12-04T11:26:25;4.10;99.90
9103;DHT22;4587;51.434;6.788;2023-12-04T11:28:52;4.10;99.90
9103;DHT22;4587;51.434;6.788;2023-12-04T11:31:18;4.00;99.90
9103;DHT22;4587;51.434;6.788;2023-12-04T11:33:44;4.00;99.90
9103;DHT22;4587;51.434;6.788;2023-12-04T11:36:11;4.00;99.90
9103;DHT22;4587;51.434;6.788;2023-12-04T11:38:38;4.00;99.90
9103;DHT22;4587;51.434;6.788;2023-12-04T11:41:22;4.00;99.90
9103;DHT22;4587;51.434;6.788;2023-12-04T11:43:48;4.00;99.90
9103;DHT22;4587;51.434;6.788;2023-12-04T11:46:19;4.10;99.90
9103;DHT22;4587;51.434;6.788;2023-12-04T11:48:55;4.10;99.90
9103;DHT22;4587;51.434;6.788;2023-12-04T11:54:08;4.10;99.90
9103;DHT22;4587;51.434;6.788;2023-12-04T11:56:34;4.00;99.90
9103;DHT22;4587;51.434;6.788;2023-12-04T11:59:03;4.00;99.90
9103;DHT22;4587;51.434;6.788;2023-12-04T12:01:33;3.90;99.90
9103;DHT22;4587;51.434;6.788;2023-12-04T12:03:59;3.90;99.90
9103;DHT22;4587;51.434;6.788;2023-12-04T12:06:25;3.90;99.90
9103;DHT22;4587;51.434;6.788;2023-12-04T12:08:51;3.80;99.90
9103;DHT22;4587;51.434;6.788;2023-12-04T12:11:17;3.80;99.90
9103;DHT22;4587;51.434;6.788;2023-12-04T12:13:42;3.80;99.90
9103;DHT22;4587;51.434;6.788;2023-12-04T12:16:08;3.70;99.90
9103;DHT22;4587;51.434;6.788;2023-12-04T12:18:37;3.70;99.90
9103;DHT22;4587;51.434;6.788;2023-12-04T12:21:04;3.70;99.90
9103;DHT22;4587;51.434;6.788;2023-12-04T12:23:30;3.70;99.90
9103;DHT22;4587;51.434;6.788;2023-12-04T12:25:55;3.70;99.90
9103;DHT22;4587;51.434;6.788;2023-12-04T12:28:21;3.60;99.90
9103;DHT22;4587;51.434;6.788;2023-12-04T12:30:47;3.50;99.90
9103;DHT22;4587;51.434;6.788;2023-12-04T12:33:14;3.50;99.90
9103;DHT22;4587;51.434;6.788;2023-12-04T12:35:40;3.50;99.90
9103;DHT22;4587;51.434;6.788;2023-12-04T12:38:06;3.50;99.90
9103;DHT22;4587;51.434;6.788;2023-12-04T12:40:33;3.50;99.90
9103;DHT22;4587;51.434;6.788;2023-12-04T12:43:07;3.50;99.90
9103;DHT22;4587;51.434;6.788;2023-12-04T12:45:43;3.50;99.90
9103;DHT22;4587;51.434;6.788;2023-12-04T12:48:12;3.50;99.90
9103;DHT22;4587;51.434;6.788;2023-12-04T12:50:37;3.50;99.90
9103;DHT22;4587;51.434;6.788;2023-12-04T12:53:03;3.50;99.90
9103;DHT22;4587;51.434;6.788;2023-12-04T12:55:28;3.50;99.90
9103;DHT22;4587;51.434;6.788;2023-12-04T12:57:57;3.50;99.90
9103;DHT22;4587;51.434;6.788;2023-12-04T13:00:23;3.50;99.90
9103;DHT22;4587;51.434;6.788;2023-12-04T13:02:51;3.60;99.90
9103;DHT22;4587;51.434;6.788;2023-12-04T13:05:17;3.60;99.90
9103;DHT22;4587;51.434;6.788;2023-12-04T13:07:45;3.60;99.90
9103;DHT22;4587;51.434;6.788;2023-12-04T13:10:10;3.70;99.90
9103;DHT22;4587;51.434;6.788;2023-12-04T13:12:36;3.70;99.90
9103;DHT22;4587;51.434;6.788;2023-12-04T13:15:02;3.70;99.90
9103;DHT22;4587;51.434;6.788;2023-12-04T13:17:29;3.70;99.90
9103;DHT22;4587;51.434;6.788;2023-12-04T13:19:54;3.80;99.90
9103;DHT22;4587;51.434;6.788;2023-12-04T13:22:20;3.80;99.90
9103;DHT22;4587;51.434;6.788;2023-12-04T13:24:45;3.80;99.90
9103;DHT22;4587;51.434;6.788;2023-12-04T13:27:11;3.90;99.90
9103;DHT22;4587;51.434;6.788;2023-12-04T13:29:36;3.90;99.90
9103;DHT22;4587;51.434;6.788;2023-12-04T13:32:02;3.90;99.90
9103;DHT22;4587;51.434;6.788;2023-12-04T13:34:29;3.80;99.90
9103;DHT22;4587;51.434;6.788;2023-12-04T13:36:55;3.80;99.90
9103;DHT22;4587;51.434;6.788;2023-12-04T13:39:21;3.80;99.90
9103;DHT22;4587;51.434;6.788;2023-12-04T13:42:01;3.80;99.90
9103;DHT22;4587;51.434;6.788;2023-12-04T13:44:46;3.80;99.90
9103;DHT22;4587;51.434;6.788;2023-12-04T13:47:11;3.80;99.90
9103;DHT22;4587;51.434;6.788;2023-12-04T13:49:37;3.80;99.90
9103;DHT22;4587;51.434;6.788;2023-12-04T13:52:03;3.80;99.90
9103;DHT22;4587;51.434;6.788;2023-12-04T13:54:33;3.70;99.90
9103;DHT22;4587;51.434;6.788;2023-12-04T13:57:19;3.70;99.90
9103;DHT22;4587;51.434;6.788;2023-12-04T14:00:08;3.70;99.90
9103;DHT22;4587;51.434;6.788;2023-12-04T14:02:34;3.70;99.90
9103;DHT22;4587;51.434;6.788;2023-12-04T14:05:02;3.60;99.90
9103;DHT22;4587;51.434;6.788;2023-12-04T14:07:28;3.70;99.90
9103;DHT22;4587;51.434;6.788;2023-12-04T14:09:53;3.70;99.90
9103;DHT22;4587;51.434;6.788;2023-12-04T14:12:19;3.70;99.90
9103;DHT22;4587;51.434;6.788;2023-12-04T14:14:44;3.70;99.90
9103;DHT22;4587;51.434;6.788;2023-12-04T14:17:10;3.70;99.90
9103;DHT22;4587;51.434;6.788;2023-12-04T14:19:37;3.70;99.90
9103;DHT22;4587;51.434;6.788;2023-12-04T14:22:05;3.70;99.90
9103;DHT22;4587;51.434;6.788;2023-12-04T14:24:30;3.70;99.90
9103;DHT22;4587;51.434;6.788;2023-12-04T14:26:56;3.70;99.90
9103;DHT22;4587;51.434;6.788;2023-12-04T14:29:22;3.70;99.90
9103;DHT22;4587;51.434;6.788;2023-12-04T14:31:47;3.70;99.90
9103;DHT22;4587;51.434;6.788;2023-12-04T14:34:13;3.80;99.90
9103;DHT22;4587;51.434;6.788;2023-12-04T14:36:38;3.70;99.90
9103;DHT22;4587;51.434;6.788;2023-12-04T14:39:06;3.80;99.90
9103;DHT22;4587;51.434;6.788;2023-12-04T14:41:31;3.80;99.90
9103;DHT22;4587;51.434;6.788;2023-12-04T14:43:57;3.80;99.90
9103;DHT22;4587;51.434;6.788;2023-12-04T14:46:23;3.80;99.90
9103;DHT22;4587;51.434;6.788;2023-12-04T14:48:48;3.70;99.90
9103;DHT22;4587;51.434;6.788;2023-12-04T14:51:14;3.80;99.90
9103;DHT22;4587;51.434;6.788;2023-12-04T14:53:39;3.80;99.90
9103;DHT22;4587;51.434;6.788;2023-12-04T14:56:36;3.80;99.90
9103;DHT22;4587;51.434;6.788;2023-12-04T14:59:02;3.80;99.90
9103;DHT22;4587;51.434;6.788;2023-12-04T15:01:31;3.80;99.90
9103;DHT22;4587;51.434;6.788;2023-12-04T15:04:23;3.80;99.90
9103;DHT22;4587;51.434;6.788;2023-12-04T15:07:07;3.80;99.90
9103;DHT22;4587;51.434;6.788;2023-12-04T15:09:53;3.70;99.90
9103;DHT22;4587;51.434;6.788;2023-12-04T15:12:49;3.70;99.90
9103;DHT22;4587;51.434;6.788;2023-12-04T15:15:30;3.60;99.90
9103;DHT22;4587;51.434;6.788;2023-12-04T15:18:04;3.70;99.90
9103;DHT22;4587;51.434;6.788;2023-12-04T15:20:59;3.70;99.90
9103;DHT22;4587;51.434;6.788;2023-12-04T15:23:25;3.70;99.90
9103;DHT22;4587;51.434;6.788;2023-12-04T15:25:50;3.60;99.90
9103;DHT22;4587;51.434;6.788;2023-12-04T15:28:16;3.70;99.90
9103;DHT22;4587;51.434;6.788;2023-12-04T15:30:41;3.70;99.90
9103;DHT22;4587;51.434;6.788;2023-12-04T15:33:07;3.70;99.90
9103;DHT22;4587;51.434;6.788;2023-12-04T15:35:33;3.70;99.90
9103;DHT22;4587;51.434;6.788;2023-12-04T15:37:58;3.70;99.90
9103;DHT22;4587;51.434;6.788;2023-12-04T15:40:24;3.70;99.90
9103;DHT22;4587;51.434;6.788;2023-12-04T15:42:49;3.80;99.90
9103;DHT22;4587;51.434;6.788;2023-12-04T15:45:15;3.70;99.90
9103;DHT22;4587;51.434;6.788;2023-12-04T15:47:41;3.70;99.90
9103;DHT22;4587;51.434;6.788;2023-12-04T15:50:06;3.70;99.90
9103;DHT22;4587;51.434;6.788;2023-12-04T15:52:33;3.70;99.90
9103;DHT22;4587;51.434;6.788;2023-12-04T15:55:04;3.70;99.90
9103;DHT22;4587;51.434;6.788;2023-12-04T15:57:29;3.70;99.90
9103;DHT22;4587;51.434;6.788;2023-12-04T15:59:55;3.60;99.90
9103;DHT22;4587;51.434;6.788;2023-12-04T16:02:20;3.60;99.90
9103;DHT22;4587;51.434;6.788;2023-12-04T16:04:46;3.50;99.90
9103;DHT22;4587;51.434;6.788;2023-12-04T16:07:11;3.50;99.90
9103;DHT22;4587;51.434;6.788;2023-12-04T16:09:37;3.40;99.90
9103;DHT22;4587;51.434;6.788;2023-12-04T16:12:02;3.30;99.90
9103;DHT22;4587;51.434;6.788;2023-12-04T16:14:28;3.30;99.90
9103;DHT22;4587;51.434;6.788;2023-12-04T16:16:54;3.30;99.90
9103;DHT22;4587;51.434;6.788;2023-12-04T16:19:19;3.30;99.90
9103;DHT22;4587;51.434;6.788;2023-12-04T16:21:45;3.20;99.90